sensor_id;sensor_type;location;lat;lon;timestamp;P1;durP1;ratioP1;P2;durP2;ratioP2
4575;SDS011;2300;51.874;8.430;2023-12-28T00:01:34;3.87;;;1.60;;
4575;SDS011;2300;51.874;8.430;2023-12-28T00:04:02;3.83;;;1.50;;
4575;SDS011;2300;51.874;8.430;2023-12-28T00:06:29;3.77;;;1.53;;
4575;SDS011;2300;51.874;8.430;2023-12-28T00:08:56;3.13;;;1.50;;
4575;SDS011;2300;51.874;8.430;2023-12-28T00:11:22;3.57;;;1.50;;
4575;SDS011;2300;51.874;8.430;2023-12-28T00:13:49;3.17;;;1.40;;
4575;SDS011;2300;51.874;8.430;2023-12-28T00:16:15;5.30;;;1.80;;
4575;SDS011;2300;51.874;8.430;2023-12-28T00:18:42;6.23;;;1.57;;
4575;SDS011;2300;51.874;8.430;2023-12-28T00:21:09;5.87;;;1.70;;
4575;SDS011;2300;51.874;8.430;2023-12-28T00:23:36;6.70;;;2.20;;
4575;SDS011;2300;51.874;8.430;2023-12-28T00:26:03;5.37;;;1.80;;
4575;SDS011;2300;51.874;8.430;2023-12-28T00:28:30;3.43;;;1.50;;
4575;SDS011;2300;51.874;8.430;2023-12-28T00:30:56;5.53;;;1.80;;
4575;SDS011;2300;51.874;8.430;2023-12-28T00:33:23;5.90;;;1.60;;
4575;SDS011;2300;51.874;8.430;2023-12-28T00:35:49;4.40;;;1.80;;
4575;SDS011;2300;51.874;8.430;2023-12-28T00:38:17;4.17;;;1.40;;
4575;SDS011;2300;51.874;8.430;2023-12-28T00:40:43;4.77;;;1.70;;
4575;SDS011;2300;51.874;8.430;2023-12-28T00:43:10;4.30;;;2.13;;
4575;SDS011;2300;51.874;8.430;2023-12-28T00:45:37;4.03;;;1.53;;
4575;SDS011;2300;51.874;8.430;2023-12-28T00:48:03;5.00;;;1.87;;
4575;SDS011;2300;51.874;8.430;2023-12-28T00:50:30;3.70;;;1.77;;
4575;SDS011;2300;51.874;8.430;2023-12-28T00:52:57;6.00;;;1.60;;
4575;SDS011;2300;51.874;8.430;2023-12-28T00:55:25;5.43;;;1.70;;
4575;SDS011;2300;51.874;8.430;2023-12-28T00:57:52;5.80;;;2.57;;
4575;SDS011;2300;51.874;8.430;2023-12-28T01:00:19;4.80;;;2.10;;
4575;SDS011;2300;51.874;8.430;2023-12-28T01:02:46;4.20;;;1.73;;
4575;SDS011;2300;51.874;8.430;2023-12-28T01:05:12;3.60;;;2.17;;
4575;SDS011;2300;51.874;8.430;2023-12-28T01:07:39;5.13;;;1.97;;
4575;SDS011;2300;51.874;8.430;2023-12-28T01:10:06;3.87;;;1.70;;
4575;SDS011;2300;51.874;8.430;2023-12-28T01:12:34;3.60;;;1.80;;
4575;SDS011;2300;51.874;8.430;2023-12-28T01:15:01;5.20;;;2.30;;
4575;SDS011;2300;51.874;8.430;2023-12-28T01:17:27;3.33;;;1.80;;
4575;SDS011;2300;51.874;8.430;2023-12-28T01:19:54;3.73;;;1.80;;
4575;SDS011;2300;51.874;8.430;2023-12-28T01:22:21;4.23;;;2.00;;
4575;SDS011;2300;51.874;8.430;2023-12-28T01:24:47;4.50;;;2.00;;
4575;SDS011;2300;51.874;8.430;2023-12-28T01:27:14;6.63;;;2.10;;
4575;SDS011;2300;51.874;8.430;2023-12-28T01:29:42;3.83;;;1.80;;
4575;SDS011;2300;51.874;8.430;2023-12-28T01:32:09;5.87;;;2.20;;
4575;SDS011;2300;51.874;8.430;2023-12-28T01:34:35;4.40;;;2.00;;
4575;SDS011;2300;51.874;8.430;2023-12-28T01:37:02;2.97;;;1.77;;
4575;SDS011;2300;51.874;8.430;2023-12-28T01:39:29;5.80;;;2.23;;
4575;SDS011;2300;51.874;8.430;2023-12-28T01:41:55;6.13;;;2.27;;
4575;SDS011;2300;51.874;8.430;2023-12-28T01:44:22;3.23;;;1.97;;
4575;SDS011;2300;51.874;8.430;2023-12-28T01:46:50;3.80;;;1.90;;
4575;SDS011;2300;51.874;8.430;2023-12-28T01:49:15;5.57;;;2.00;;
4575;SDS011;2300;51.874;8.430;2023-12-28T01:51:42;4.80;;;2.07;;
4575;SDS011;2300;51.874;8.430;2023-12-28T01:54:10;6.03;;;1.80;;
4575;SDS011;2300;51.874;8.430;2023-12-28T01:56:37;4.50;;;1.80;;
4575;SDS011;2300;51.874;8.430;2023-12-28T01:59:04;2.77;;;1.63;;
4575;SDS011;2300;51.874;8.430;2023-12-28T02:01:31;5.03;;;1.73;;
4575;SDS011;2300;51.874;8.430;2023-12-28T02:03:59;3.97;;;1.97;;
4575;SDS011;2300;51.874;8.430;2023-12-28T02:06:27;4.83;;;2.50;;
4575;SDS011;2300;51.874;8.430;2023-12-28T02:08:54;4.30;;;2.10;;
4575;SDS011;2300;51.874;8.430;2023-12-28T02:11:21;4.67;;;2.10;;
4575;SDS011;2300;51.874;8.430;2023-12-28T02:13:47;4.40;;;2.17;;
4575;SDS011;2300;51.874;8.430;2023-12-28T02:16:15;4.23;;;1.80;;
4575;SDS011;2300;51.874;8.430;2023-12-28T02:18:49;4.90;;;2.13;;
4575;SDS011;2300;51.874;8.430;2023-12-28T02:21:19;3.13;;;1.97;;
4575;SDS011;2300;51.874;8.430;2023-12-28T02:23:47;4.30;;;2.20;;
4575;SDS011;2300;51.874;8.430;2023-12-28T02:26:15;5.00;;;2.23;;
4575;SDS011;2300;51.874;8.430;2023-12-28T02:28:42;7.33;;;2.50;;
4575;SDS011;2300;51.874;8.430;2023-12-28T02:31:09;3.90;;;2.00;;
4575;SDS011;2300;51.874;8.430;2023-12-28T02:33:42;6.73;;;2.17;;
4575;SDS011;2300;51.874;8.430;2023-12-28T02:36:15;3.70;;;2.00;;
4575;SDS011;2300;51.874;8.430;2023-12-28T02:38:44;5.23;;;2.20;;
4575;SDS011;2300;51.874;8.430;2023-12-28T02:41:16;5.03;;;2.40;;
4575;SDS011;2300;51.874;8.430;2023-12-28T02:43:43;3.27;;;2.10;;
4575;SDS011;2300;51.874;8.430;2023-12-28T02:46:10;3.93;;;2.20;;
4575;SDS011;2300;51.874;8.430;2023-12-28T02:48:36;5.30;;;2.67;;
4575;SDS011;2300;51.874;8.430;2023-12-28T02:51:03;5.00;;;2.60;;
4575;SDS011;2300;51.874;8.430;2023-12-28T02:53:30;4.57;;;2.30;;
4575;SDS011;2300;51.874;8.430;2023-12-28T02:55:56;4.50;;;2.30;;
4575;SDS011;2300;51.874;8.430;2023-12-28T02:58:24;5.07;;;2.27;;
4575;SDS011;2300;51.874;8.430;2023-12-28T03:00:51;6.03;;;2.70;;
4575;SDS011;2300;51.874;8.430;2023-12-28T03:03:17;4.93;;;2.13;;
4575;SDS011;2300;51.874;8.430;2023-12-28T03:05:44;4.03;;;2.30;;
4575;SDS011;2300;51.874;8.430;2023-12-28T03:08:11;4.93;;;2.77;;
4575;SDS011;2300;51.874;8.430;2023-12-28T03:10:37;6.20;;;2.60;;
4575;SDS011;2300;51.874;8.430;2023-12-28T03:13:04;5.00;;;2.80;;
4575;SDS011;2300;51.874;8.430;2023-12-28T03:15:32;5.47;;;2.70;;
4575;SDS011;2300;51.874;8.430;2023-12-28T03:17:59;4.43;;;2.43;;
4575;SDS011;2300;51.874;8.430;2023-12-28T03:20:26;4.37;;;2.37;;
4575;SDS011;2300;51.874;8.430;2023-12-28T03:22:52;5.67;;;2.33;;
4575;SDS011;2300;51.874;8.430;2023-12-28T03:25:19;4.40;;;3.00;;
4575;SDS011;2300;51.874;8.430;2023-12-28T03:27:45;6.40;;;2.60;;
4575;SDS011;2300;51.874;8.430;2023-12-28T03:30:12;5.20;;;2.97;;
4575;SDS011;2300;51.874;8.430;2023-12-28T03:32:40;6.97;;;2.23;;
4575;SDS011;2300;51.874;8.430;2023-12-28T03:35:07;5.80;;;2.37;;
4575;SDS011;2300;51.874;8.430;2023-12-28T03:37:34;4.73;;;2.50;;
4575;SDS011;2300;51.874;8.430;2023-12-28T03:40:00;6.47;;;2.57;;
4575;SDS011;2300;51.874;8.430;2023-12-28T03:42:27;6.47;;;2.57;;
4575;SDS011;2300;51.874;8.430;2023-12-28T03:44:54;6.23;;;2.70;;
4575;SDS011;2300;51.874;8.430;2023-12-28T03:47:20;5.63;;;2.97;;
4575;SDS011;2300;51.874;8.430;2023-12-28T03:49:49;6.50;;;2.40;;
4575;SDS011;2300;51.874;8.430;2023-12-28T03:52:16;6.73;;;2.50;;
4575;SDS011;2300;51.874;8.430;2023-12-28T03:54:42;6.37;;;2.73;;
4575;SDS011;2300;51.874;8.430;2023-12-28T03:57:09;5.20;;;2.77;;
4575;SDS011;2300;51.874;8.430;2023-12-28T03:59:35;5.27;;;2.70;;
4575;SDS011;2300;51.874;8.430;2023-12-28T04:02:02;3.83;;;2.40;;
4575;SDS011;2300;51.874;8.430;2023-12-28T04:04:29;4.43;;;2.23;;
4575;SDS011;2300;51.874;8.430;2023-12-28T04:06:56;5.47;;;2.40;;
4575;SDS011;2300;51.874;8.430;2023-12-28T04:09:23;5.47;;;2.67;;
4575;SDS011;2300;51.874;8.430;2023-12-28T04:11:50;5.07;;;2.70;;
4575;SDS011;2300;51.874;8.430;2023-12-28T04:14:16;4.30;;;2.60;;
4575;SDS011;2300;51.874;8.430;2023-12-28T04:16:43;4.10;;;2.33;;
4575;SDS011;2300;51.874;8.430;2023-12-28T04:19:10;4.87;;;2.30;;
4575;SDS011;2300;51.874;8.430;2023-12-28T04:21:37;4.30;;;2.47;;
4575;SDS011;2300;51.874;8.430;2023-12-28T04:24:05;5.13;;;2.53;;
4575;SDS011;2300;51.874;8.430;2023-12-28T04:26:32;6.20;;;2.37;;
4575;SDS011;2300;51.874;8.430;2023-12-28T04:28:58;4.33;;;2.10;;
4575;SDS011;2300;51.874;8.430;2023-12-28T04:31:25;4.47;;;2.40;;
4575;SDS011;2300;51.874;8.430;2023-12-28T04:33:52;4.50;;;2.23;;
4575;SDS011;2300;51.874;8.430;2023-12-28T04:36:18;5.30;;;1.90;;
4575;SDS011;2300;51.874;8.430;2023-12-28T04:38:45;4.13;;;2.00;;
4575;SDS011;2300;51.874;8.430;2023-12-28T04:41:13;4.37;;;2.13;;
4575;SDS011;2300;51.874;8.430;2023-12-28T04:43:39;6.33;;;2.10;;
4575;SDS011;2300;51.874;8.430;2023-12-28T04:46:06;3.27;;;1.90;;
4575;SDS011;2300;51.874;8.430;2023-12-28T04:48:34;5.53;;;2.27;;
4575;SDS011;2300;51.874;8.430;2023-12-28T04:51:02;5.07;;;2.00;;
4575;SDS011;2300;51.874;8.430;2023-12-28T04:53:29;3.77;;;1.97;;
4575;SDS011;2300;51.874;8.430;2023-12-28T04:55:55;3.70;;;1.73;;
4575;SDS011;2300;51.874;8.430;2023-12-28T04:58:23;6.07;;;2.03;;
4575;SDS011;2300;51.874;8.430;2023-12-28T05:00:50;4.33;;;1.80;;
4575;SDS011;2300;51.874;8.430;2023-12-28T05:03:16;5.10;;;2.17;;
4575;SDS011;2300;51.874;8.430;2023-12-28T05:05:43;4.17;;;1.67;;
4575;SDS011;2300;51.874;8.430;2023-12-28T05:08:09;4.17;;;1.80;;
4575;SDS011;2300;51.874;8.430;2023-12-28T05:10:36;3.37;;;1.57;;
4575;SDS011;2300;51.874;8.430;2023-12-28T05:13:03;2.83;;;1.50;;
4575;SDS011;2300;51.874;8.430;2023-12-28T05:15:31;5.13;;;1.70;;
4575;SDS011;2300;51.874;8.430;2023-12-28T05:17:57;5.00;;;2.00;;
4575;SDS011;2300;51.874;8.430;2023-12-28T05:20:24;2.57;;;1.70;;
4575;SDS011;2300;51.874;8.430;2023-12-28T05:22:50;5.73;;;2.03;;
4575;SDS011;2300;51.874;8.430;2023-12-28T05:25:17;2.97;;;1.43;;
4575;SDS011;2300;51.874;8.430;2023-12-28T05:27:43;2.07;;;1.50;;
4575;SDS011;2300;51.874;8.430;2023-12-28T05:30:10;3.40;;;1.40;;
4575;SDS011;2300;51.874;8.430;2023-12-28T05:32:38;2.90;;;1.47;;
4575;SDS011;2300;51.874;8.430;2023-12-28T05:35:05;3.23;;;1.50;;
4575;SDS011;2300;51.874;8.430;2023-12-28T05:37:32;4.50;;;1.67;;
4575;SDS011;2300;51.874;8.430;2023-12-28T05:39:59;3.77;;;1.60;;
4575;SDS011;2300;51.874;8.430;2023-12-28T05:42:25;2.90;;;1.60;;
4575;SDS011;2300;51.874;8.430;2023-12-28T05:44:52;4.40;;;1.90;;
4575;SDS011;2300;51.874;8.430;2023-12-28T05:47:18;4.50;;;1.63;;
4575;SDS011;2300;51.874;8.430;2023-12-28T05:49:46;2.40;;;1.50;;
4575;SDS011;2300;51.874;8.430;2023-12-28T05:52:13;2.70;;;1.33;;
4575;SDS011;2300;51.874;8.430;2023-12-28T05:54:40;4.23;;;1.60;;
4575;SDS011;2300;51.874;8.430;2023-12-28T05:57:07;3.83;;;1.57;;
4575;SDS011;2300;51.874;8.430;2023-12-28T05:59:36;3.63;;;1.83;;
4575;SDS011;2300;51.874;8.430;2023-12-28T06:02:03;5.27;;;1.73;;
4575;SDS011;2300;51.874;8.430;2023-12-28T06:04:30;5.33;;;1.70;;
4575;SDS011;2300;51.874;8.430;2023-12-28T06:06:59;5.17;;;1.90;;
4575;SDS011;2300;51.874;8.430;2023-12-28T06:09:26;4.97;;;1.50;;
4575;SDS011;2300;51.874;8.430;2023-12-28T06:11:54;4.20;;;1.60;;
4575;SDS011;2300;51.874;8.430;2023-12-28T06:14:20;3.80;;;1.50;;
4575;SDS011;2300;51.874;8.430;2023-12-28T06:16:47;4.80;;;1.60;;
4575;SDS011;2300;51.874;8.430;2023-12-28T06:19:13;4.03;;;1.70;;
4575;SDS011;2300;51.874;8.430;2023-12-28T06:21:40;4.90;;;1.70;;
4575;SDS011;2300;51.874;8.430;2023-12-28T06:24:09;3.50;;;1.63;;
4575;SDS011;2300;51.874;8.430;2023-12-28T06:26:38;2.43;;;1.43;;
4575;SDS011;2300;51.874;8.430;2023-12-28T06:29:05;4.50;;;1.43;;
4575;SDS011;2300;51.874;8.430;2023-12-28T06:31:32;2.73;;;1.23;;
4575;SDS011;2300;51.874;8.430;2023-12-28T06:34:01;3.27;;;1.50;;
4575;SDS011;2300;51.874;8.430;2023-12-28T06:36:27;4.67;;;1.73;;
4575;SDS011;2300;51.874;8.430;2023-12-28T06:38:54;2.97;;;1.57;;
4575;SDS011;2300;51.874;8.430;2023-12-28T06:41:22;4.43;;;1.83;;
4575;SDS011;2300;51.874;8.430;2023-12-28T06:43:49;4.07;;;1.90;;
4575;SDS011;2300;51.874;8.430;2023-12-28T06:46:15;5.33;;;1.73;;
4575;SDS011;2300;51.874;8.430;2023-12-28T06:48:42;5.43;;;1.93;;
4575;SDS011;2300;51.874;8.430;2023-12-28T06:51:08;3.30;;;1.53;;
4575;SDS011;2300;51.874;8.430;2023-12-28T06:53:35;4.10;;;1.70;;
4575;SDS011;2300;51.874;8.430;2023-12-28T06:56:02;4.53;;;1.73;;
4575;SDS011;2300;51.874;8.430;2023-12-28T06:58:33;3.77;;;1.70;;
4575;SDS011;2300;51.874;8.430;2023-12-28T07:00:59;3.47;;;1.53;;
4575;SDS011;2300;51.874;8.430;2023-12-28T07:03:29;4.63;;;1.80;;
4575;SDS011;2300;51.874;8.430;2023-12-28T07:05:57;4.03;;;1.53;;
4575;SDS011;2300;51.874;8.430;2023-12-28T07:08:24;3.27;;;1.40;;
4575;SDS011;2300;51.874;8.430;2023-12-28T07:10:51;2.73;;;1.50;;
4575;SDS011;2300;51.874;8.430;2023-12-28T07:13:17;3.17;;;1.53;;
4575;SDS011;2300;51.874;8.430;2023-12-28T07:15:45;4.43;;;1.70;;
4575;SDS011;2300;51.874;8.430;2023-12-28T07:18:12;4.37;;;1.60;;
4575;SDS011;2300;51.874;8.430;2023-12-28T07:20:38;3.57;;;1.43;;
4575;SDS011;2300;51.874;8.430;2023-12-28T07:23:05;3.43;;;1.60;;
4575;SDS011;2300;51.874;8.430;2023-12-28T07:25:31;3.93;;;1.60;;
4575;SDS011;2300;51.874;8.430;2023-12-28T07:27:58;5.07;;;1.80;;
4575;SDS011;2300;51.874;8.430;2023-12-28T07:30:24;3.77;;;1.47;;
4575;SDS011;2300;51.874;8.430;2023-12-28T07:32:52;2.83;;;1.50;;
4575;SDS011;2300;51.874;8.430;2023-12-28T07:35:19;3.30;;;1.43;;
4575;SDS011;2300;51.874;8.430;2023-12-28T07:37:45;3.60;;;1.60;;
4575;SDS011;2300;51.874;8.430;2023-12-28T07:40:12;5.03;;;1.90;;
4575;SDS011;2300;51.874;8.430;2023-12-28T07:42:39;4.60;;;2.10;;
4575;SDS011;2300;51.874;8.430;2023-12-28T07:45:06;6.10;;;2.73;;
4575;SDS011;2300;51.874;8.430;2023-12-28T07:47:33;4.20;;;1.70;;
4575;SDS011;2300;51.874;8.430;2023-12-28T07:50:01;3.40;;;1.70;;
4575;SDS011;2300;51.874;8.430;2023-12-28T07:52:28;4.53;;;1.83;;
4575;SDS011;2300;51.874;8.430;2023-12-28T07:54:55;2.67;;;1.50;;
4575;SDS011;2300;51.874;8.430;2023-12-28T07:57:21;5.43;;;1.80;;
4575;SDS011;2300;51.874;8.430;2023-12-28T07:59:48;3.93;;;1.60;;
4575;SDS011;2300;51.874;8.430;2023-12-28T08:02:14;5.87;;;1.77;;
4575;SDS011;2300;51.874;8.430;2023-12-28T08:04:41;5.97;;;2.07;;
4575;SDS011;2300;51.874;8.430;2023-12-28T08:07:09;5.53;;;1.60;;
4575;SDS011;2300;51.874;8.430;2023-12-28T08:09:36;8.23;;;2.10;;
4575;SDS011;2300;51.874;8.430;2023-12-28T08:12:02;5.43;;;1.90;;
4575;SDS011;2300;51.874;8.430;2023-12-28T08:14:29;4.37;;;1.70;;
4575;SDS011;2300;51.874;8.430;2023-12-28T08:16:56;5.70;;;2.00;;
4575;SDS011;2300;51.874;8.430;2023-12-28T08:19:22;3.27;;;1.73;;
4575;SDS011;2300;51.874;8.430;2023-12-28T08:21:49;6.10;;;1.90;;
4575;SDS011;2300;51.874;8.430;2023-12-28T08:24:17;7.20;;;2.30;;
4575;SDS011;2300;51.874;8.430;2023-12-28T08:26:43;4.67;;;1.77;;
4575;SDS011;2300;51.874;8.430;2023-12-28T08:29:11;4.57;;;1.80;;
4575;SDS011;2300;51.874;8.430;2023-12-28T08:31:38;5.83;;;2.07;;
4575;SDS011;2300;51.874;8.430;2023-12-28T08:34:04;4.43;;;2.10;;
4575;SDS011;2300;51.874;8.430;2023-12-28T08:36:31;7.70;;;1.80;;
4575;SDS011;2300;51.874;8.430;2023-12-28T08:38:57;5.17;;;1.87;;
4575;SDS011;2300;51.874;8.430;2023-12-28T08:41:25;4.80;;;1.97;;
4575;SDS011;2300;51.874;8.430;2023-12-28T08:43:52;4.83;;;2.00;;
4575;SDS011;2300;51.874;8.430;2023-12-28T08:46:19;7.00;;;2.37;;
4575;SDS011;2300;51.874;8.430;2023-12-28T08:48:46;6.30;;;2.00;;
4575;SDS011;2300;51.874;8.430;2023-12-28T08:51:12;4.53;;;1.83;;
4575;SDS011;2300;51.874;8.430;2023-12-28T08:53:39;5.33;;;2.00;;
4575;SDS011;2300;51.874;8.430;2023-12-28T08:56:12;5.03;;;2.13;;
4575;SDS011;2300;51.874;8.430;2023-12-28T08:58:43;5.33;;;2.10;;
4575;SDS011;2300;51.874;8.430;2023-12-28T09:01:15;6.07;;;2.00;;
4575;SDS011;2300;51.874;8.430;2023-12-28T09:03:42;6.03;;;1.97;;
4575;SDS011;2300;51.874;8.430;2023-12-28T09:06:08;3.57;;;1.90;;
4575;SDS011;2300;51.874;8.430;2023-12-28T09:08:35;4.63;;;2.40;;
4575;SDS011;2300;51.874;8.430;2023-12-28T09:11:01;4.77;;;2.03;;
4575;SDS011;2300;51.874;8.430;2023-12-28T09:13:28;6.10;;;2.03;;
4575;SDS011;2300;51.874;8.430;2023-12-28T09:15:57;7.00;;;2.17;;
4575;SDS011;2300;51.874;8.430;2023-12-28T09:18:24;6.03;;;2.00;;
4575;SDS011;2300;51.874;8.430;2023-12-28T09:20:50;6.83;;;1.90;;
4575;SDS011;2300;51.874;8.430;2023-12-28T09:23:17;4.80;;;1.80;;
4575;SDS011;2300;51.874;8.430;2023-12-28T09:25:43;5.70;;;1.63;;
4575;SDS011;2300;51.874;8.430;2023-12-28T09:28:10;5.27;;;1.90;;
4575;SDS011;2300;51.874;8.430;2023-12-28T09:30:38;6.30;;;2.07;;
4575;SDS011;2300;51.874;8.430;2023-12-28T09:33:06;4.53;;;1.53;;
4575;SDS011;2300;51.874;8.430;2023-12-28T09:35:32;4.73;;;1.60;;
4575;SDS011;2300;51.874;8.430;2023-12-28T09:38:01;6.10;;;1.87;;
4575;SDS011;2300;51.874;8.430;2023-12-28T09:40:27;5.63;;;1.90;;
4575;SDS011;2300;51.874;8.430;2023-12-28T09:42:57;9.30;;;2.10;;
4575;SDS011;2300;51.874;8.430;2023-12-28T09:45:29;4.90;;;1.73;;
4575;SDS011;2300;51.874;8.430;2023-12-28T09:47:56;5.23;;;1.80;;
4575;SDS011;2300;51.874;8.430;2023-12-28T09:50:26;4.47;;;1.60;;
4575;SDS011;2300;51.874;8.430;2023-12-28T09:52:53;5.93;;;1.70;;
4575;SDS011;2300;51.874;8.430;2023-12-28T09:55:19;7.10;;;2.00;;
4575;SDS011;2300;51.874;8.430;2023-12-28T09:57:46;5.30;;;1.83;;
4575;SDS011;2300;51.874;8.430;2023-12-28T10:00:13;7.57;;;1.90;;
4575;SDS011;2300;51.874;8.430;2023-12-28T10:02:40;7.20;;;2.10;;
4575;SDS011;2300;51.874;8.430;2023-12-28T10:05:11;7.93;;;1.90;;
4575;SDS011;2300;51.874;8.430;2023-12-28T10:07:44;6.73;;;1.90;;
4575;SDS011;2300;51.874;8.430;2023-12-28T10:10:11;7.30;;;2.07;;
4575;SDS011;2300;51.874;8.430;2023-12-28T10:12:37;6.90;;;1.93;;
4575;SDS011;2300;51.874;8.430;2023-12-28T10:15:05;5.13;;;1.83;;
4575;SDS011;2300;51.874;8.430;2023-12-28T10:17:32;6.50;;;1.97;;
4575;SDS011;2300;51.874;8.430;2023-12-28T10:19:59;4.47;;;1.73;;
4575;SDS011;2300;51.874;8.430;2023-12-28T10:22:29;7.50;;;2.20;;
4575;SDS011;2300;51.874;8.430;2023-12-28T10:24:57;4.70;;;1.63;;
4575;SDS011;2300;51.874;8.430;2023-12-28T10:27:25;7.00;;;1.73;;
4575;SDS011;2300;51.874;8.430;2023-12-28T10:29:53;8.07;;;1.77;;
4575;SDS011;2300;51.874;8.430;2023-12-28T10:32:20;5.43;;;1.63;;
4575;SDS011;2300;51.874;8.430;2023-12-28T10:34:48;9.77;;;1.73;;
4575;SDS011;2300;51.874;8.430;2023-12-28T10:37:14;8.90;;;1.90;;
4575;SDS011;2300;51.874;8.430;2023-12-28T10:39:46;11.30;;;1.80;;
4575;SDS011;2300;51.874;8.430;2023-12-28T10:42:16;10.93;;;1.80;;
4575;SDS011;2300;51.874;8.430;2023-12-28T10:44:49;5.93;;;1.80;;
4575;SDS011;2300;51.874;8.430;2023-12-28T10:47:21;7.67;;;1.70;;
4575;SDS011;2300;51.874;8.430;2023-12-28T10:49:52;8.80;;;1.77;;
4575;SDS011;2300;51.874;8.430;2023-12-28T10:52:21;9.27;;;2.07;;
4575;SDS011;2300;51.874;8.430;2023-12-28T10:54:54;8.30;;;1.87;;
4575;SDS011;2300;51.874;8.430;2023-12-28T10:57:32;7.30;;;2.23;;
4575;SDS011;2300;51.874;8.430;2023-12-28T11:00:07;10.83;;;2.20;;
4575;SDS011;2300;51.874;8.430;2023-12-28T11:02:37;7.33;;;1.80;;
4575;SDS011;2300;51.874;8.430;2023-12-28T11:05:06;10.97;;;2.07;;
4575;SDS011;2300;51.874;8.430;2023-12-28T11:07:33;8.00;;;1.60;;
4575;SDS011;2300;51.874;8.430;2023-12-28T11:10:03;9.67;;;1.90;;
4575;SDS011;2300;51.874;8.430;2023-12-28T11:12:33;11.10;;;2.17;;
4575;SDS011;2300;51.874;8.430;2023-12-28T11:15:00;7.07;;;1.70;;
4575;SDS011;2300;51.874;8.430;2023-12-28T11:17:29;9.40;;;1.90;;
4575;SDS011;2300;51.874;8.430;2023-12-28T11:19:57;7.67;;;1.60;;
4575;SDS011;2300;51.874;8.430;2023-12-28T11:22:25;12.37;;;2.37;;
4575;SDS011;2300;51.874;8.430;2023-12-28T11:24:52;6.93;;;1.70;;
4575;SDS011;2300;51.874;8.430;2023-12-28T11:27:19;8.63;;;1.90;;
4575;SDS011;2300;51.874;8.430;2023-12-28T11:29:48;7.37;;;2.07;;
4575;SDS011;2300;51.874;8.430;2023-12-28T11:32:17;8.93;;;1.90;;
4575;SDS011;2300;51.874;8.430;2023-12-28T11:34:45;11.47;;;2.03;;
4575;SDS011;2300;51.874;8.430;2023-12-28T11:37:22;7.33;;;1.80;;
4575;SDS011;2300;51.874;8.430;2023-12-28T11:39:52;13.20;;;2.33;;
4575;SDS011;2300;51.874;8.430;2023-12-28T11:42:20;10.93;;;2.10;;
4575;SDS011;2300;51.874;8.430;2023-12-28T11:44:53;9.90;;;1.60;;
4575;SDS011;2300;51.874;8.430;2023-12-28T11:47:21;12.52;;;1.90;;
4575;SDS011;2300;51.874;8.430;2023-12-28T11:49:48;8.15;;;1.92;;
4575;SDS011;2300;51.874;8.430;2023-12-28T11:52:23;8.53;;;1.80;;
4575;SDS011;2300;51.874;8.430;2023-12-28T11:54:51;11.40;;;2.10;;
4575;SDS011;2300;51.874;8.430;2023-12-28T11:57:18;11.50;;;2.03;;
4575;SDS011;2300;51.874;8.430;2023-12-28T11:59:44;8.13;;;1.70;;
4575;SDS011;2300;51.874;8.430;2023-12-28T12:02:13;9.43;;;1.77;;
4575;SDS011;2300;51.874;8.430;2023-12-28T12:04:40;11.47;;;1.80;;
4575;SDS011;2300;51.874;8.430;2023-12-28T12:07:06;12.03;;;2.10;;
4575;SDS011;2300;51.874;8.430;2023-12-28T12:09:33;9.80;;;1.57;;
4575;SDS011;2300;51.874;8.430;2023-12-28T12:12:00;8.70;;;1.73;;
4575;SDS011;2300;51.874;8.430;2023-12-28T12:14:27;10.13;;;1.63;;
4575;SDS011;2300;51.874;8.430;2023-12-28T12:16:54;7.77;;;1.50;;
4575;SDS011;2300;51.874;8.430;2023-12-28T12:19:23;7.57;;;1.60;;
4575;SDS011;2300;51.874;8.430;2023-12-28T12:21:51;8.47;;;2.00;;
4575;SDS011;2300;51.874;8.430;2023-12-28T12:24:18;7.20;;;1.90;;
4575;SDS011;2300;51.874;8.430;2023-12-28T12:26:45;9.23;;;1.73;;
4575;SDS011;2300;51.874;8.430;2023-12-28T12:29:11;11.33;;;2.20;;
4575;SDS011;2300;51.874;8.430;2023-12-28T12:31:39;8.03;;;1.70;;
4575;SDS011;2300;51.874;8.430;2023-12-28T12:34:07;12.77;;;1.90;;
4575;SDS011;2300;51.874;8.430;2023-12-28T12:36:35;9.27;;;1.73;;
4575;SDS011;2300;51.874;8.430;2023-12-28T12:39:02;11.10;;;1.80;;
4575;SDS011;2300;51.874;8.430;2023-12-28T12:41:31;7.70;;;1.60;;
4575;SDS011;2300;51.874;8.430;2023-12-28T12:43:58;9.40;;;2.37;;
4575;SDS011;2300;51.874;8.430;2023-12-28T12:46:25;8.70;;;1.73;;
4575;SDS011;2300;51.874;8.430;2023-12-28T12:48:55;12.70;;;2.00;;
4575;SDS011;2300;51.874;8.430;2023-12-28T12:51:22;9.63;;;2.07;;
4575;SDS011;2300;51.874;8.430;2023-12-28T12:53:50;11.97;;;2.13;;
4575;SDS011;2300;51.874;8.430;2023-12-28T12:56:22;9.40;;;1.40;;
4575;SDS011;2300;51.874;8.430;2023-12-28T12:58:49;11.83;;;1.90;;
4575;SDS011;2300;51.874;8.430;2023-12-28T13:01:16;9.57;;;1.37;;
4575;SDS011;2300;51.874;8.430;2023-12-28T13:03:41;5.53;;;1.67;;
4575;SDS011;2300;51.874;8.430;2023-12-28T13:06:08;8.47;;;1.60;;
4575;SDS011;2300;51.874;8.430;2023-12-28T13:08:34;9.90;;;1.63;;
4575;SDS011;2300;51.874;8.430;2023-12-28T13:11:02;8.83;;;1.43;;
4575;SDS011;2300;51.874;8.430;2023-12-28T13:13:31;4.83;;;1.53;;
4575;SDS011;2300;51.874;8.430;2023-12-28T13:15:58;10.77;;;1.50;;
4575;SDS011;2300;51.874;8.430;2023-12-28T13:18:25;7.10;;;1.40;;
4575;SDS011;2300;51.874;8.430;2023-12-28T13:20:51;7.53;;;1.20;;
4575;SDS011;2300;51.874;8.430;2023-12-28T13:23:18;11.47;;;2.17;;
4575;SDS011;2300;51.874;8.430;2023-12-28T13:25:45;9.43;;;1.80;;
4575;SDS011;2300;51.874;8.430;2023-12-28T13:28:13;6.90;;;1.43;;
4575;SDS011;2300;51.874;8.430;2023-12-28T13:30:39;6.90;;;1.43;;
4575;SDS011;2300;51.874;8.430;2023-12-28T13:33:06;10.23;;;1.57;;
4575;SDS011;2300;51.874;8.430;2023-12-28T13:35:32;9.13;;;1.50;;
4575;SDS011;2300;51.874;8.430;2023-12-28T13:37:59;7.20;;;1.70;;
4575;SDS011;2300;51.874;8.430;2023-12-28T13:40:26;6.80;;;1.57;;
4575;SDS011;2300;51.874;8.430;2023-12-28T13:42:52;6.80;;;1.50;;
4575;SDS011;2300;51.874;8.430;2023-12-28T13:45:21;8.73;;;1.47;;
4575;SDS011;2300;51.874;8.430;2023-12-28T13:47:47;6.43;;;1.80;;
4575;SDS011;2300;51.874;8.430;2023-12-28T13:50:14;11.57;;;1.83;;
4575;SDS011;2300;51.874;8.430;2023-12-28T13:52:41;7.60;;;1.47;;
4575;SDS011;2300;51.874;8.430;2023-12-28T13:55:07;7.57;;;1.57;;
4575;SDS011;2300;51.874;8.430;2023-12-28T13:57:34;7.60;;;1.73;;
4575;SDS011;2300;51.874;8.430;2023-12-28T14:00:01;7.33;;;1.60;;
4575;SDS011;2300;51.874;8.430;2023-12-28T14:02:29;9.07;;;1.80;;
4575;SDS011;2300;51.874;8.430;2023-12-28T14:04:55;8.47;;;1.53;;
4575;SDS011;2300;51.874;8.430;2023-12-28T14:07:22;7.73;;;1.60;;
4575;SDS011;2300;51.874;8.430;2023-12-28T14:09:49;8.10;;;1.50;;
4575;SDS011;2300;51.874;8.430;2023-12-28T14:12:16;10.37;;;1.40;;
4575;SDS011;2300;51.874;8.430;2023-12-28T14:14:43;6.33;;;1.20;;
4575;SDS011;2300;51.874;8.430;2023-12-28T14:17:09;8.40;;;1.70;;
4575;SDS011;2300;51.874;8.430;2023-12-28T14:19:37;7.40;;;1.30;;
4575;SDS011;2300;51.874;8.430;2023-12-28T14:22:04;10.03;;;1.50;;
4575;SDS011;2300;51.874;8.430;2023-12-28T14:24:32;11.10;;;2.20;;
4575;SDS011;2300;51.874;8.430;2023-12-28T14:26:59;7.50;;;1.37;;
4575;SDS011;2300;51.874;8.430;2023-12-28T14:29:26;9.63;;;1.60;;
4575;SDS011;2300;51.874;8.430;2023-12-28T14:31:54;9.00;;;2.27;;
4575;SDS011;2300;51.874;8.430;2023-12-28T14:34:21;5.70;;;1.37;;
4575;SDS011;2300;51.874;8.430;2023-12-28T14:36:50;7.93;;;1.93;;
4575;SDS011;2300;51.874;8.430;2023-12-28T14:39:18;8.40;;;1.40;;
4575;SDS011;2300;51.874;8.430;2023-12-28T14:41:45;8.50;;;1.43;;
4575;SDS011;2300;51.874;8.430;2023-12-28T14:44:12;7.90;;;1.60;;
4575;SDS011;2300;51.874;8.430;2023-12-28T14:46:38;9.53;;;1.50;;
4575;SDS011;2300;51.874;8.430;2023-12-28T14:49:05;7.53;;;1.77;;
4575;SDS011;2300;51.874;8.430;2023-12-28T14:51:31;9.17;;;1.60;;
4575;SDS011;2300;51.874;8.430;2023-12-28T14:53:59;5.57;;;1.40;;
4575;SDS011;2300;51.874;8.430;2023-12-28T14:56:26;7.97;;;1.57;;
4575;SDS011;2300;51.874;8.430;2023-12-28T14:58:53;8.43;;;2.40;;
4575;SDS011;2300;51.874;8.430;2023-12-28T15:01:19;6.87;;;1.70;;
4575;SDS011;2300;51.874;8.430;2023-12-28T15:03:46;9.00;;;1.83;;
4575;SDS011;2300;51.874;8.430;2023-12-28T15:06:13;8.87;;;2.10;;
4575;SDS011;2300;51.874;8.430;2023-12-28T15:08:39;10.27;;;1.67;;
4575;SDS011;2300;51.874;8.430;2023-12-28T15:11:07;10.50;;;2.37;;
4575;SDS011;2300;51.874;8.430;2023-12-28T15:13:35;7.60;;;2.20;;
4575;SDS011;2300;51.874;8.430;2023-12-28T15:16:02;12.97;;;3.20;;